createdAt,value
2022-11-15T00:00:58.447Z,6.77
2022-11-15T00:03:27.189Z,6.72
2022-11-15T00:05:54.478Z,6.63
2022-11-15T00:08:22.055Z,6.52
2022-11-15T00:11:00.745Z,6.41
2022-11-15T00:13:27.965Z,6.35
2022-11-15T00:15:58.075Z,6.29
2022-11-15T00:18:25.696Z,6.26
2022-11-15T00:20:52.852Z,6.22
2022-11-15T00:23:20.140Z,6.16
2022-11-15T00:25:47.365Z,6.10
2022-11-15T00:28:14.437Z,6.07
2022-11-15T00:30:41.503Z,6.04
2022-11-15T00:33:09.627Z,5.99
2022-11-15T00:35:37.024Z,5.96
2022-11-15T00:38:04.084Z,5.95
2022-11-15T00:40:31.513Z,5.93
2022-11-15T00:42:58.640Z,5.89
2022-11-15T00:45:25.866Z,5.84
2022-11-15T00:47:53.424Z,5.81
2022-11-15T00:50:20.463Z,5.76
2022-11-15T00:52:47.755Z,5.70
2022-11-15T00:55:19.286Z,5.66
2022-11-15T00:57:47.398Z,5.60
2022-11-15T01:00:15.033Z,5.54
2022-11-15T01:02:42.142Z,5.46
2022-11-15T01:05:09.508Z,5.41
2022-11-15T01:07:37.081Z,5.40
2022-11-15T01:10:06.002Z,5.35
2022-11-15T01:12:33.296Z,5.37
2022-11-15T01:15:00.482Z,5.36
2022-11-15T01:17:28.118Z,5.36
2022-11-15T01:19:55.127Z,5.34
2022-11-15T01:22:22.204Z,5.33
2022-11-15T01:24:52.095Z,5.27
2022-11-15T01:27:19.275Z,5.18
2022-11-15T01:29:46.449Z,5.13
2022-11-15T01:32:13.836Z,5.08
2022-11-15T01:34:40.898Z,5.06
2022-11-15T01:37:08.237Z,5.02
2022-11-15T01:39:35.329Z,4.97
2022-11-15T01:42:02.667Z,4.93
2022-11-15T01:44:39.906Z,4.94
2022-11-15T01:47:42.162Z,4.95
2022-11-15T01:50:11.175Z,4.96
2022-11-15T01:52:39.111Z,4.94
2022-11-15T01:55:13.057Z,4.90
2022-11-15T01:57:42.098Z,4.88
2022-11-15T02:00:09.759Z,4.84
2022-11-15T02:02:38.784Z,4.81
2022-11-15T02:05:06.025Z,4.79
2022-11-15T02:07:33.739Z,4.81
2022-11-15T02:10:05.727Z,4.79
2022-11-15T02:12:32.899Z,4.78
2022-11-15T02:15:00.531Z,4.74
2022-11-15T02:18:05.512Z,4.67
2022-11-15T02:20:41.707Z,4.61
2022-11-15T02:23:50.078Z,4.56
2022-11-15T02:26:28.985Z,4.55
2022-11-15T02:29:06.326Z,4.55
2022-11-15T02:31:45.624Z,4.56
2022-11-15T02:34:16.751Z,4.53
2022-11-15T02:36:50.747Z,4.49
2022-11-15T02:39:26.822Z,4.43
2022-11-15T02:42:03.792Z,4.37
2022-11-15T02:44:38.453Z,4.38
2022-11-15T02:47:13.907Z,4.41
2022-11-15T02:49:44.841Z,4.39
2022-11-15T02:52:16.957Z,4.32
2022-11-15T02:54:44.313Z,4.28
2022-11-15T02:57:17.272Z,4.28
2022-11-15T02:59:57.962Z,4.24
2022-11-15T03:03:02.629Z,4.20
2022-11-15T03:05:54.847Z,4.15
2022-11-15T03:08:40.929Z,4.15
2022-11-15T03:11:14.735Z,4.16
2022-11-15T03:14:07.474Z,4.17
2022-11-15T03:17:09.616Z,4.15
2022-11-15T03:19:43.147Z,4.09
2022-11-15T03:22:13.151Z,4.02
2022-11-15T03:24:40.421Z,4.04
2022-11-15T03:27:09.024Z,4.07
2022-11-15T03:29:40.122Z,4.02
2022-11-15T03:32:12.765Z,3.93
2022-11-15T03:34:44.744Z,3.86
2022-11-15T03:37:14.450Z,3.82
2022-11-15T03:39:42.107Z,3.80
2022-11-15T03:42:18.904Z,3.84
2022-11-15T03:45:09.803Z,3.87
2022-11-15T03:47:43.225Z,3.91
2022-11-15T03:50:18.976Z,3.90
2022-11-15T03:52:47.759Z,3.91
2022-11-15T03:55:17.923Z,3.93
2022-11-15T03:57:45.443Z,3.91
2022-11-15T04:00:12.831Z,3.93
2022-11-15T04:02:39.902Z,3.96
2022-11-15T04:05:07.298Z,3.97
2022-11-15T04:07:34.509Z,4.00
2022-11-15T04:10:04.837Z,4.01
2022-11-15T04:12:37.162Z,3.99
2022-11-15T04:15:18.506Z,3.92
2022-11-15T04:17:50.597Z,3.93
2022-11-15T04:20:47.290Z,3.93
2022-11-15T04:23:41.056Z,3.95
2022-11-15T04:26:13.625Z,3.94
2022-11-15T04:29:00.704Z,3.91
2022-11-15T04:31:28.137Z,3.87
2022-11-15T04:33:55.796Z,3.88
2022-11-15T04:36:41.894Z,3.86
2022-11-15T04:39:08.997Z,3.81
2022-11-15T04:41:36.222Z,3.77
2022-11-15T04:44:03.329Z,3.70
2022-11-15T04:46:30.476Z,3.71
2022-11-15T04:48:59.237Z,3.70
2022-11-15T04:51:26.915Z,3.73
2022-11-15T04:53:53.950Z,3.76
2022-11-15T04:56:21.058Z,3.75
2022-11-15T04:58:51.080Z,3.65
2022-11-15T05:01:18.379Z,3.55
2022-11-15T05:04:04.661Z,3.43
2022-11-15T05:06:31.773Z,3.45
2022-11-15T05:08:59.230Z,3.50
2022-11-15T05:11:28.198Z,3.58
2022-11-15T05:13:55.511Z,3.65
2022-11-15T05:16:22.604Z,3.75
2022-11-15T05:18:53.590Z,3.82
2022-11-15T05:21:21.283Z,3.86
2022-11-15T05:23:48.399Z,3.86
2022-11-15T05:26:17.273Z,3.79
2022-11-15T05:28:44.319Z,3.79
2022-11-15T05:31:16.263Z,3.83
2022-11-15T05:33:44.416Z,3.85
2022-11-15T05:36:20.020Z,3.90
2022-11-15T05:38:47.763Z,3.95
2022-11-15T05:41:16.246Z,4.00
2022-11-15T05:43:44.189Z,4.02
2022-11-15T05:46:11.267Z,4.06
2022-11-15T05:48:38.910Z,4.08
2022-11-15T05:51:06.337Z,4.06
2022-11-15T05:53:34.317Z,4.06
2022-11-15T05:56:01.839Z,4.05
2022-11-15T05:58:28.905Z,4.05
2022-11-15T06:00:56.158Z,3.99
2022-11-15T06:03:23.497Z,3.99
2022-11-15T06:05:50.684Z,4.02
2022-11-15T06:08:17.726Z,4.01
2022-11-15T06:10:44.756Z,4.00
2022-11-15T06:13:11.823Z,4.02
2022-11-15T06:15:39.008Z,3.99
2022-11-15T06:18:06.122Z,4.02
2022-11-15T06:20:33.246Z,4.01
2022-11-15T06:23:04.347Z,4.01
2022-11-15T06:25:31.873Z,3.98
2022-11-15T06:27:59.799Z,3.97
2022-11-15T06:30:27.711Z,3.96
2022-11-15T06:33:06.234Z,3.93
2022-11-15T06:35:35.444Z,3.89
2022-11-15T06:38:07.472Z,3.86
2022-11-15T06:40:36.237Z,3.87
2022-11-15T06:43:04.153Z,3.89
2022-11-15T06:45:31.535Z,3.87
2022-11-15T06:47:59.241Z,3.88
2022-11-15T06:50:26.350Z,3.90
2022-11-15T06:52:53.670Z,3.90
2022-11-15T06:55:21.037Z,3.92
2022-11-15T06:57:50.286Z,3.94
2022-11-15T07:00:18.970Z,3.91
2022-11-15T07:02:46.383Z,3.88
2022-11-15T07:05:14.194Z,3.90
2022-11-15T07:07:41.307Z,3.90
2022-11-15T07:10:09.473Z,3.92
2022-11-15T07:12:36.587Z,3.96
2022-11-15T07:15:04.158Z,4.01
2022-11-15T07:17:31.331Z,4.07
2022-11-15T07:19:58.361Z,4.14
2022-11-15T07:22:25.441Z,4.19
2022-11-15T07:24:52.572Z,4.22
2022-11-15T07:27:19.812Z,4.27
2022-11-15T07:29:46.987Z,4.33
2022-11-15T07:32:14.202Z,4.41
2022-11-15T07:34:41.375Z,4.47
2022-11-15T07:37:08.695Z,4.56
2022-11-15T07:39:35.816Z,4.64
2022-11-15T07:42:21.661Z,4.67
2022-11-15T07:44:48.756Z,4.72
2022-11-15T07:47:16.023Z,4.77
2022-11-15T07:49:43.119Z,4.87
2022-11-15T07:52:10.205Z,4.94
2022-11-15T07:54:37.330Z,5.04
2022-11-15T07:57:07.546Z,5.17
2022-11-15T07:59:36.057Z,5.28
2022-11-15T08:02:04.076Z,5.46
2022-11-15T08:04:31.281Z,5.80
2022-11-15T08:06:58.515Z,6.15
2022-11-15T08:09:25.795Z,6.46
2022-11-15T08:11:52.966Z,6.70
2022-11-15T08:14:20.023Z,6.92
2022-11-15T08:16:47.080Z,7.15
2022-11-15T08:19:14.155Z,7.28
2022-11-15T08:21:41.255Z,7.45
2022-11-15T08:24:10.899Z,7.63
2022-11-15T08:26:38.041Z,7.78
2022-11-15T08:29:05.074Z,7.91
2022-11-15T08:31:32.125Z,8.05
2022-11-15T08:33:59.174Z,8.23
2022-11-15T08:36:26.215Z,8.32
2022-11-15T08:38:53.377Z,8.44
2022-11-15T08:41:35.179Z,8.60
2022-11-15T08:44:02.366Z,8.75
2022-11-15T08:46:29.454Z,8.85
2022-11-15T08:48:56.510Z,8.97
2022-11-15T08:51:23.927Z,9.07
2022-11-15T08:53:51.004Z,9.17
2022-11-15T08:56:18.123Z,9.27
2022-11-15T08:58:45.291Z,9.38
2022-11-15T09:01:19.959Z,9.53
2022-11-15T09:03:47.270Z,9.66
2022-11-15T09:06:14.574Z,9.80
2022-11-15T09:08:47.332Z,9.87
2022-11-15T09:11:17.329Z,9.99
2022-11-15T09:13:44.425Z,10.09
2022-11-15T09:16:12.984Z,10.21
2022-11-15T09:18:40.117Z,10.35
2022-11-15T09:21:07.241Z,10.51
2022-11-15T09:23:34.350Z,10.62
2022-11-15T09:26:03.577Z,10.73
2022-11-15T09:28:31.742Z,10.87
2022-11-15T09:31:00.508Z,11.01
2022-11-15T09:33:28.114Z,11.16
2022-11-15T09:35:55.279Z,11.32
2022-11-15T09:38:22.365Z,11.41
2022-11-15T09:40:53.523Z,11.53
2022-11-15T09:43:29.626Z,11.68
2022-11-15T09:46:09.859Z,11.85
2022-11-15T09:48:46.484Z,12.00
2022-11-15T09:51:19.648Z,12.12
2022-11-15T09:56:47.248Z,12.36
2022-11-15T09:59:22.456Z,12.50
2022-11-15T10:02:20.969Z,12.58
2022-11-15T10:04:48.318Z,12.69
2022-11-15T10:07:21.260Z,12.77
2022-11-15T10:10:27.614Z,12.89
2022-11-15T10:12:54.884Z,13.03
2022-11-15T10:15:23.738Z,13.13
2022-11-15T10:18:07.155Z,13.23
2022-11-15T10:20:56.943Z,13.35
2022-11-15T10:23:24.572Z,13.46
2022-11-15T10:26:06.427Z,13.63
2022-11-15T10:28:34.122Z,13.75
2022-11-15T10:31:02.198Z,13.84
2022-11-15T10:33:37.199Z,13.96
2022-11-15T10:36:10.491Z,14.04
2022-11-15T10:38:49.670Z,14.15
2022-11-15T10:41:44.248Z,14.21
2022-11-15T10:44:27.391Z,14.32
2022-11-15T10:46:57.680Z,14.42
2022-11-15T10:49:32.491Z,14.50
2022-11-15T10:52:02.464Z,14.53
2022-11-15T10:54:34.328Z,14.58
2022-11-15T10:57:07.501Z,14.58
2022-11-15T10:59:39.233Z,14.50
2022-11-15T11:02:36.097Z,14.53
2022-11-15T11:05:26.276Z,14.54
2022-11-15T11:08:02.376Z,14.66
2022-11-15T11:10:50.553Z,14.66
2022-11-15T11:13:26.718Z,14.75
2022-11-15T11:16:25.347Z,14.76
2022-11-15T11:19:13.461Z,14.78
2022-11-15T11:21:50.619Z,14.87
2022-11-15T11:24:28.466Z,14.99
2022-11-15T11:27:08.476Z,14.99
2022-11-15T11:29:40.070Z,15.07
2022-11-15T11:32:31.059Z,15.15
2022-11-15T11:35:14.626Z,15.18
2022-11-15T11:37:54.578Z,15.23
2022-11-15T11:40:31.827Z,15.19
2022-11-15T11:43:22.969Z,15.23
2022-11-15T11:46:00.917Z,15.25
2022-11-15T11:48:41.698Z,15.21
2022-11-15T11:51:16.565Z,15.16
2022-11-15T11:53:53.201Z,15.21
2022-11-15T11:56:27.916Z,15.27
2022-11-15T11:58:59.028Z,15.29
2022-11-15T12:01:30.497Z,15.31
2022-11-15T12:04:06.505Z,15.26
2022-11-15T12:06:46.598Z,15.32
2022-11-15T12:09:17.306Z,15.36
2022-11-15T12:11:57.220Z,15.43
2022-11-15T12:14:39.689Z,15.49
2022-11-15T12:17:10.204Z,15.56
2022-11-15T12:19:37.461Z,15.57
2022-11-15T12:22:21.815Z,15.56
2022-11-15T12:24:54.545Z,15.53
2022-11-15T12:27:34.172Z,15.60
2022-11-15T12:30:05.394Z,15.63
2022-11-15T12:32:35.809Z,15.63
2022-11-15T12:35:04.906Z,15.61
2022-11-15T12:37:44.196Z,15.57
2022-11-15T12:40:30.921Z,15.54
2022-11-15T12:43:08.713Z,15.50
2022-11-15T12:45:38.386Z,15.46
2022-11-15T12:48:17.909Z,15.45
2022-11-15T12:50:57.011Z,15.45
2022-11-15T12:53:24.114Z,15.46
2022-11-15T12:56:03.008Z,15.46
2022-11-15T12:58:43.564Z,15.53
2022-11-15T13:01:11.567Z,15.58
2022-11-15T13:04:17.357Z,15.61
2022-11-15T13:06:49.700Z,15.65
2022-11-15T13:09:34.887Z,15.66
2022-11-15T13:12:02.828Z,15.65
2022-11-15T13:14:44.245Z,15.65
2022-11-15T13:17:20.475Z,15.60
2022-11-15T13:19:54.895Z,15.60
2022-11-15T13:22:40.485Z,15.64
2022-11-15T13:25:16.917Z,15.72
2022-11-15T13:27:44.082Z,15.74
2022-11-15T13:30:20.937Z,15.74
2022-11-15T13:32:49.142Z,15.76
2022-11-15T13:35:24.472Z,15.74
2022-11-15T13:37:52.159Z,15.77
2022-11-15T13:40:31.240Z,15.76
2022-11-15T13:42:59.190Z,15.70
2022-11-15T13:45:27.781Z,15.73
2022-11-15T13:47:57.111Z,15.72
2022-11-15T13:50:35.231Z,15.69
2022-11-15T13:53:04.173Z,15.72
2022-11-15T13:55:33.806Z,15.67
2022-11-15T13:58:14.325Z,15.69
2022-11-15T14:00:44.375Z,15.67
2022-11-15T14:03:26.971Z,15.63
2022-11-15T14:06:15.843Z,15.60
2022-11-15T14:09:01.431Z,15.54
2022-11-15T14:11:28.791Z,15.51
2022-11-15T14:14:13.070Z,15.49
2022-11-15T14:16:48.647Z,15.41
2022-11-15T14:19:21.635Z,15.32
2022-11-15T14:22:13.385Z,15.30
2022-11-15T14:24:41.691Z,15.27
2022-11-15T14:27:27.889Z,15.21
2022-11-15T14:29:55.226Z,15.12
2022-11-15T14:32:30.490Z,15.13
2022-11-15T14:35:00.349Z,15.10
2022-11-15T14:37:35.598Z,15.01
2022-11-15T14:40:05.452Z,14.97
2022-11-15T14:42:33.053Z,14.95
2022-11-15T14:45:00.160Z,14.84
2022-11-15T14:47:27.218Z,14.84
2022-11-15T14:49:54.295Z,14.82
2022-11-15T14:52:32.532Z,14.74
2022-11-15T14:55:02.154Z,14.62
2022-11-15T14:57:29.686Z,14.51
2022-11-15T14:59:57.854Z,14.37
2022-11-15T15:02:26.379Z,14.31
2022-11-15T15:04:54.117Z,14.19
2022-11-15T15:07:21.287Z,14.16
2022-11-15T15:09:48.493Z,14.02
2022-11-15T15:12:21.716Z,13.87
2022-11-15T15:14:50.277Z,13.75
2022-11-15T15:17:17.908Z,13.64
2022-11-15T15:19:45.184Z,13.51
2022-11-15T15:22:16.864Z,13.38
2022-11-15T15:24:47.317Z,13.22
2022-11-15T15:27:14.841Z,13.10
2022-11-15T15:29:42.021Z,13.00
2022-11-15T15:32:10.899Z,12.94
2022-11-15T15:34:38.106Z,12.83
2022-11-15T15:37:09.350Z,12.77
2022-11-15T15:39:36.405Z,12.70
2022-11-15T15:42:04.884Z,12.61
2022-11-15T15:44:31.976Z,12.57
2022-11-15T15:46:59.066Z,12.49
2022-11-15T15:49:26.150Z,12.38
2022-11-15T15:51:53.343Z,12.20
2022-11-15T15:54:20.442Z,12.13
2022-11-15T15:56:50.973Z,12.00
2022-11-15T15:59:20.761Z,11.93
2022-11-15T16:01:47.855Z,11.89
2022-11-15T16:04:15.342Z,11.84
2022-11-15T16:06:45.952Z,11.78
2022-11-15T16:09:18.112Z,11.71
2022-11-15T16:11:46.966Z,11.60
2022-11-15T16:14:14.170Z,11.51
2022-11-15T16:16:41.324Z,11.42
2022-11-15T16:19:09.248Z,11.46
2022-11-15T16:21:36.285Z,11.43
2022-11-15T16:24:03.454Z,11.35
2022-11-15T16:26:31.060Z,11.35
2022-11-15T16:28:58.686Z,11.36
2022-11-15T16:31:25.887Z,11.34
2022-11-15T16:33:52.942Z,11.20
2022-11-15T16:36:30.419Z,11.12
2022-11-15T16:38:58.917Z,11.02
2022-11-15T16:41:26.438Z,10.92
2022-11-15T16:43:54.086Z,10.84
2022-11-15T16:46:26.424Z,10.77
2022-11-15T16:48:54.835Z,10.72
2022-11-15T16:51:23.078Z,10.60
2022-11-15T16:53:50.587Z,10.57
2022-11-15T16:56:27.629Z,10.56
2022-11-15T16:58:58.429Z,10.59
2022-11-15T17:01:27.660Z,10.61
2022-11-15T17:03:55.285Z,10.60
2022-11-15T17:06:23.048Z,10.57
2022-11-15T17:08:50.132Z,10.53
2022-11-15T17:11:19.779Z,10.51
2022-11-15T17:13:46.989Z,10.50
2022-11-15T17:16:15.758Z,10.48
2022-11-15T17:18:46.986Z,10.42
2022-11-15T17:21:16.758Z,10.32
2022-11-15T17:23:43.900Z,10.27
2022-11-15T17:26:28.710Z,10.17
2022-11-15T17:28:57.566Z,10.04
2022-11-15T17:31:25.655Z,9.95
2022-11-15T17:33:52.822Z,9.82
2022-11-15T17:36:20.043Z,9.79
2022-11-15T17:38:55.428Z,9.68
2022-11-15T17:41:26.514Z,9.72
2022-11-15T17:43:53.713Z,9.66
2022-11-15T17:46:21.370Z,9.65
2022-11-15T17:48:49.293Z,9.67
2022-11-15T17:51:17.707Z,9.68
2022-11-15T17:53:46.925Z,9.63
2022-11-15T17:56:16.151Z,9.51
2022-11-15T17:58:48.406Z,9.30
2022-11-15T18:01:20.538Z,9.19
2022-11-15T18:03:48.488Z,9.08
2022-11-15T18:06:16.416Z,8.99
2022-11-15T18:08:45.723Z,9.00
2022-11-15T18:11:17.429Z,8.95
2022-11-15T18:13:51.927Z,8.89
2022-11-15T18:16:24.687Z,8.85
2022-11-15T18:18:52.227Z,8.79
2022-11-15T18:21:25.283Z,8.66
2022-11-15T18:23:57.557Z,8.60
2022-11-15T18:26:27.605Z,8.56
2022-11-15T18:28:56.920Z,8.49
2022-11-15T18:31:27.160Z,8.40
2022-11-15T18:33:54.398Z,8.33
2022-11-15T18:36:27.204Z,8.22
2022-11-15T18:39:02.733Z,8.15
2022-11-15T18:41:31.063Z,8.06
2022-11-15T18:44:00.565Z,7.99
2022-11-15T18:46:30.787Z,7.94
2022-11-15T18:48:59.980Z,7.88
2022-11-15T18:51:32.286Z,7.77
2022-11-15T18:54:01.254Z,7.74
2022-11-15T18:56:30.267Z,7.69
2022-11-15T18:58:59.260Z,7.61
2022-11-15T19:01:29.065Z,7.54
2022-11-15T19:03:57.756Z,7.51
2022-11-15T19:06:27.023Z,7.45
2022-11-15T19:08:56.365Z,7.40
2022-11-15T19:11:31.729Z,7.35
2022-11-15T19:14:04.115Z,7.26
2022-11-15T19:16:33.613Z,7.26
2022-11-15T19:19:06.476Z,7.23
2022-11-15T19:21:34.208Z,7.21
2022-11-15T19:24:01.703Z,7.18
2022-11-15T19:26:29.358Z,7.08
2022-11-15T19:29:01.100Z,7.05
2022-11-15T19:31:31.303Z,6.98
2022-11-15T19:34:00.040Z,6.97
2022-11-15T19:36:35.378Z,6.94
2022-11-15T19:39:08.136Z,6.94
2022-11-15T19:41:37.877Z,6.88
2022-11-15T19:44:06.139Z,6.89
2022-11-15T19:46:33.821Z,6.90
2022-11-15T19:49:01.068Z,6.90
2022-11-15T19:51:30.348Z,6.87
2022-11-15T19:53:59.978Z,6.82
2022-11-15T19:56:27.027Z,6.80
2022-11-15T19:58:55.448Z,6.78
2022-11-15T20:01:28.293Z,6.77
2022-11-15T20:03:57.694Z,6.69
2022-11-15T20:06:28.617Z,6.61
2022-11-15T20:08:56.127Z,6.69
2022-11-15T20:11:23.400Z,6.77
2022-11-15T20:13:50.601Z,6.82
2022-11-15T20:16:22.172Z,6.87
2022-11-15T20:18:50.426Z,6.89
2022-11-15T20:21:18.048Z,6.88
2022-11-15T20:23:45.162Z,6.86
2022-11-15T20:26:15.324Z,6.86
2022-11-15T20:28:44.337Z,6.84
2022-11-15T20:31:11.962Z,6.73
2022-11-15T20:33:39.749Z,6.62
2022-11-15T20:36:12.238Z,6.63
2022-11-15T20:38:43.442Z,6.57
2022-11-15T20:41:14.389Z,6.54
2022-11-15T20:43:43.761Z,6.51
2022-11-15T20:46:12.460Z,6.50
2022-11-15T20:48:40.106Z,6.50
2022-11-15T20:51:16.255Z,6.50
2022-11-15T20:53:44.585Z,6.41
2022-11-15T20:56:14.362Z,6.37
2022-11-15T20:58:42.130Z,6.33
2022-11-15T21:01:11.162Z,6.26
2022-11-15T21:03:38.314Z,6.24
2022-11-15T21:06:05.926Z,6.16
2022-11-15T21:08:53.421Z,6.09
2022-11-15T21:11:39.523Z,6.10
2022-11-15T21:14:09.600Z,6.12
2022-11-15T21:16:37.869Z,6.16
2022-11-15T21:19:05.990Z,6.12
2022-11-15T21:21:33.380Z,6.08
2022-11-15T21:24:03.132Z,6.07
2022-11-15T21:26:30.452Z,6.02
2022-11-15T21:28:57.515Z,5.93
2022-11-15T21:31:24.792Z,5.92
2022-11-15T21:33:51.899Z,5.89
2022-11-15T21:36:18.932Z,5.84
2022-11-15T21:38:45.978Z,5.81
2022-11-15T21:41:13.034Z,5.80
2022-11-15T21:43:40.080Z,5.70
2022-11-15T21:46:07.487Z,5.65
2022-11-15T21:48:35.705Z,5.63
2022-11-15T21:51:07.679Z,5.54
2022-11-15T21:53:35.101Z,5.52
2022-11-15T21:56:02.726Z,5.52
2022-11-15T21:58:31.092Z,5.52
2022-11-15T22:01:17.850Z,5.49
2022-11-15T22:03:45.284Z,5.36
2022-11-15T22:06:17.424Z,5.34
2022-11-15T22:08:45.839Z,5.33
2022-11-15T22:11:13.643Z,5.30
2022-11-15T22:13:40.894Z,5.30
2022-11-15T22:16:08.838Z,5.31
2022-11-15T22:18:36.336Z,5.33
2022-11-15T22:21:06.082Z,5.35
2022-11-15T22:23:33.906Z,5.35
2022-11-15T22:26:01.635Z,5.32
2022-11-15T22:28:29.533Z,5.30
2022-11-15T22:30:57.143Z,5.29
2022-11-15T22:33:27.621Z,5.31
2022-11-15T22:35:55.344Z,5.30
2022-11-15T22:38:23.249Z,5.24
2022-11-15T22:40:50.987Z,5.21
2022-11-15T22:43:19.511Z,5.11
2022-11-15T22:45:53.572Z,5.26
2022-11-15T22:48:22.850Z,5.42
2022-11-15T22:50:50.887Z,5.56
2022-11-15T22:53:18.606Z,5.72
2022-11-15T22:55:50.847Z,5.83
2022-11-15T22:58:18.167Z,5.92
2022-11-15T23:00:48.967Z,6.03
2022-11-15T23:03:16.478Z,6.11
2022-11-15T23:05:43.590Z,6.20
2022-11-15T23:08:10.783Z,6.26
2022-11-15T23:10:57.690Z,6.26
2022-11-15T23:13:26.758Z,6.33
2022-11-15T23:16:23.012Z,6.38
2022-11-15T23:18:51.362Z,6.40
2022-11-15T23:21:49.701Z,6.44
2022-11-15T23:24:17.611Z,6.43
2022-11-15T23:26:46.021Z,6.41
2022-11-15T23:29:14.824Z,6.39
2022-11-15T23:32:02.561Z,6.33
2022-11-15T23:34:31.347Z,6.39
2022-11-15T23:36:59.246Z,6.40
2022-11-15T23:39:26.742Z,6.38
2022-11-15T23:41:53.907Z,6.38
2022-11-15T23:44:21.164Z,6.38
2022-11-15T23:46:48.282Z,6.42
2022-11-15T23:49:15.343Z,6.40
2022-11-15T23:51:42.439Z,6.38
2022-11-15T23:54:10.151Z,6.40
2022-11-15T23:56:37.689Z,6.28
2022-11-15T23:59:04.984Z,6.21
